Azamara Quest — V7DM6 — position and weather

sailwx.info

Track history (hours):
 
Tides and Currents Weather Stations Pressure Air Temp Water Temp Dewpoint Dewpoint Depression Visibility Wind Speed Wind Dir Waves Ship Positions

Azamara Quest

Last reported at 2019-Oct-20 10:50 UTC. Time now 2019-Oct-20 11:08 UTC.
Position N 54°45' E 012°39'.

Length 184 m; draft 10.6 m.

Type: Tanker. MMSI: 538005401.

Date/timePositionNaut miles runAvg speedWind from/ knotsBaromVisibWave heightAir tempDewpointWater temp
2019-Oct-20 10:50N 54°45' E 012°39'3411.9
2019-Oct-20 07:59N 54°58' E 013°34'1712.2
2019-Oct-20 06:37N 55°03' E 014°01'1211.8
2019-Oct-20 05:35N 55°13' E 014°16'512.5
2019-Oct-20 05:10N 55°17' E 014°22'1112.4
2019-Oct-20 04:18N 55°25' E 014°33'511.9
2019-Oct-20 03:52N 55°28' E 014°40'411.9
2019-Oct-20 03:30N 55°30' E 014°47'612.1
2019-Oct-20 03:00N 55°33' E 014°56'612.1
2019-Oct-20 02:30N 55°36' E 015°06'612.2
2019-Oct-20 02:01N 55°39' E 015°15'612.1
2019-Oct-20 01:31N 55°42' E 015°24'612.1
2019-Oct-20 01:01N 55°45' E 015°34'612.2
2019-Oct-20 00:31N 55°48' E 015°43'612.1
2019-Oct-20 00:00N 55°51' E 015°53'612.2
2019-Oct-19 23:31N 55°54' E 016°02'612.3
2019-Oct-19 23:01N 55°57' E 016°12'612.3
2019-Oct-19 22:31N 55°60' E 016°21'612.3
2019-Oct-19 22:00N 56°03' E 016°31'612.1
2019-Oct-19 21:31N 56°06' E 016°40'612.0
2019-Oct-19 21:00N 56°10' E 016°49'611.9
2019-Oct-19 20:31N 56°13' E 016°57'611.9
2019-Oct-19 20:01N 56°17' E 017°06'612.0
2019-Oct-19 19:31N 56°20' E 017°15'612.0
2019-Oct-19 19:01N 56°24' E 017°23'1812.2
2019-Oct-19 17:34N 56°35' E 017°49'23212.0
2019-Oct-18 22:17N 59°31' E 022°32'312.1
2019-Oct-18 22:01N 59°32' E 022°38'612.1
2019-Oct-18 21:30N 59°34' E 022°50'612.3
2019-Oct-18 21:00N 59°36' E 023°02'612.2
2019-Oct-18 20:30N 59°37' E 023°13'612.0
2019-Oct-18 20:00N 59°39' E 023°25'611.8
2019-Oct-18 19:30N 59°41' E 023°36'611.9
2019-Oct-18 19:01N 59°42' E 023°47'611.8
2019-Oct-18 18:30N 59°44' E 023°59'1011.9
2019-Oct-18 17:39N 59°46' E 024°18'212.2
2019-Oct-18 17:30N 59°47' E 024°22'612.1
2019-Oct-18 17:00N 59°48' E 024°33'612.2
2019-Oct-18 16:30N 59°50' E 024°45'612.2
2019-Oct-18 16:00N 59°51' E 024°57'612.0
2019-Oct-18 15:30N 59°52' E 025°09'611.9
2019-Oct-18 15:00N 59°53' E 025°20'612.1
2019-Oct-18 14:30N 59°54' E 025°32'812.3
2019-Oct-18 13:51N 59°55' E 025°48'412.2
2019-Oct-18 13:30N 59°56' E 025°57'611.8
2019-Oct-18 12:58N 59°58' E 026°08'611.9
2019-Oct-18 12:30N 59°60' E 026°19'612.0
2019-Oct-18 12:00N 60°01' E 026°31'611.6
2019-Oct-18 11:30N 60°01' E 026°42'612.0
2019-Oct-18 11:00N 60°00' E 026°54'611.8
2019-Oct-18 10:31N 60°00' E 027°06'612.0
2019-Oct-18 10:00N 60°04' E 027°16'612.1
2019-Oct-18 09:30N 60°07' E 027°26'612.3
2019-Oct-18 09:00N 60°10' E 027°37'611.5
2019-Oct-18 08:30N 60°12' E 027°48'612.0
2019-Oct-18 08:00N 60°10' E 027°60'612.0
2019-Oct-18 07:30N 60°09' E 028°11'611.6
2019-Oct-18 07:00N 60°06' E 028°21'611.7
2019-Oct-18 06:30N 60°03' E 028°32'4 8.1
2019-Oct-18 06:00N 59°60' E 028°36'5 9.6
2019-Oct-18 05:31N 59°55' E 028°33'510.1
2019-Oct-18 05:00N 59°51' E 028°27'612.1
2019-Oct-18 04:31N 59°45' E 028°25'3 6.6
2019-Oct-18 04:00N 59°42' E 028°25'2 3.7
2019-Oct-18 03:30N 59°41' E 028°23'0 0.0
2019-Oct-18 03:00N 59°41' E 028°23'0 0.0
2019-Oct-18 02:30N 59°41' E 028°23'0 0.0
2019-Oct-18 02:00N 59°41' E 028°23'0 0.0
2019-Oct-18 01:30N 59°41' E 028°23'0 0.0
2019-Oct-18 01:00N 59°41' E 028°23'0 0.0
2019-Oct-18 00:30N 59°41' E 028°23'0 0.0
2019-Oct-18 00:00N 59°41' E 028°23'0 0.0
2019-Oct-17 23:30N 59°41' E 028°23'0 0.0
2019-Oct-17 23:00N 59°41' E 028°23'0 0.0
2019-Oct-17 22:30N 59°41' E 028°23'0 0.0
2019-Oct-17 21:51N 59°41' E 028°23'0 0.0
2019-Oct-17 21:21N 59°41' E 028°23'0 0.0
2019-Oct-17 20:54N 59°41' E 028°23'0 0.0
2019-Oct-17 20:21N 59°41' E 028°23'0 0.0
2019-Oct-17 19:51N 59°41' E 028°23'0 0.0
2019-Oct-17 19:21N 59°41' E 028°23'0 0.0
2019-Oct-17 18:51N 59°41' E 028°23'0 0.0
2019-Oct-17 18:24N 59°41' E 028°23'0 0.0
2019-Oct-17 17:54N 59°41' E 028°23'0 0.0
2019-Oct-17 17:24N 59°41' E 028°23'0 0.0
2019-Oct-17 16:54N 59°41' E 028°23'0 0.0
2019-Oct-17 16:24N 59°41' E 028°23'0 0.0
2019-Oct-17 15:57N 59°41' E 028°23'0 0.0
2019-Oct-17 15:27N 59°41' E 028°23'0 0.0
2019-Oct-17 14:57N 59°41' E 028°23'0 0.0
2019-Oct-17 14:27N 59°41' E 028°23'0 0.0
2019-Oct-17 13:57N 59°41' E 028°23'0 0.0
2019-Oct-17 13:30N 59°41' E 028°23'0 0.0
2019-Oct-17 13:00N 59°41' E 028°23'0 0.0
2019-Oct-17 12:24N 59°41' E 028°23'0 0.0
2019-Oct-17 12:00N 59°41' E 028°23'0 0.0
2019-Oct-17 11:30N 59°41' E 028°23'0 0.0
2019-Oct-17 11:00N 59°41' E 028°23'0 0.0
2019-Oct-17 10:30N 59°41' E 028°23'0 0.0
2019-Oct-17 10:00N 59°41' E 028°23'0 0.0
2019-Oct-17 09:30N 59°41' E 028°23'0 0.0
2019-Oct-17 08:45N 59°41' E 028°23'0 0.0
2019-Oct-17 08:30N 59°41' E 028°23'0 0.0
2019-Oct-17 08:00N 59°41' E 028°23'0 0.0
2019-Oct-17 07:30N 59°41' E 028°23'0 0.0
2019-Oct-17 07:00N 59°41' E 028°23'0 0.0
2019-Oct-17 06:30N 59°41' E 028°23'0 0.0
2019-Oct-17 05:51N 59°41' E 028°23'0 0.0
2019-Oct-17 05:30N 59°41' E 028°23'0 0.0
2019-Oct-17 04:54N 59°41' E 028°23'0 0.0
2019-Oct-17 04:21N 59°41' E 028°23'0 0.0
2019-Oct-17 03:51N 59°41' E 028°23'0 0.0
2019-Oct-17 03:24N 59°41' E 028°23'0 0.0
2019-Oct-17 02:54N 59°41' E 028°23'0 0.0
2019-Oct-17 02:24N 59°41' E 028°23'0 0.0
2019-Oct-17 01:54N 59°41' E 028°23'0 0.0
2019-Oct-17 01:27N 59°41' E 028°23'0 0.0
2019-Oct-17 00:57N 59°41' E 028°23'0 0.0
2019-Oct-17 00:24N 59°41' E 028°23'0 0.0
2019-Oct-16 23:57N 59°41' E 028°23'0 0.0
2019-Oct-16 23:27N 59°41' E 028°23'0 0.0
2019-Oct-16 22:57N 59°41' E 028°23'0 0.0
2019-Oct-16 22:30N 59°41' E 028°23'0 0.0
2019-Oct-16 22:00N 59°41' E 028°23'0 0.0
2019-Oct-16 21:30N 59°41' E 028°23'0 0.0
2019-Oct-16 21:00N 59°41' E 028°23'0 0.0
2019-Oct-16 20:30N 59°41' E 028°23'0 0.0
2019-Oct-16 20:00N 59°41' E 028°23'0 0.0
2019-Oct-16 19:30N 59°41' E 028°23'0 0.0
2019-Oct-16 18:57N 59°41' E 028°23'0 0.0
2019-Oct-16 18:30N 59°41' E 028°23'0 0.0
2019-Oct-16 18:00N 59°41' E 028°23'0 0.0
2019-Oct-16 17:30N 59°41' E 028°23'0 0.0
2019-Oct-16 17:00N 59°41' E 028°23'0 0.0
2019-Oct-16 16:30N 59°41' E 028°23'0 0.0
2019-Oct-16 16:00N 59°41' E 028°23'0 0.0
2019-Oct-16 15:21N 59°41' E 028°23'0 0.0
2019-Oct-16 14:51N 59°41' E 028°23'0 0.0
2019-Oct-16 14:30N 59°41' E 028°23'0 0.0
2019-Oct-16 13:51N 59°41' E 028°23'0 0.0
2019-Oct-16 13:21N 59°41' E 028°23'0 0.0
2019-Oct-16 12:54N 59°41' E 028°23'0 0.0
2019-Oct-16 12:24N 59°41' E 028°23'0 0.0
2019-Oct-16 11:54N 59°41' E 028°23'0 0.0
2019-Oct-16 11:24N 59°41' E 028°23'0 0.0
2019-Oct-16 10:54N 59°41' E 028°23'0 0.0
2019-Oct-16 10:27N 59°41' E 028°23'0 0.0
2019-Oct-16 09:57N 59°41' E 028°23'0 0.0
2019-Oct-16 09:27N 59°41' E 028°23'0 0.0
2019-Oct-16 08:57N 59°41' E 028°23'0 0.0
2019-Oct-16 08:27N 59°41' E 028°23'0 0.0
2019-Oct-16 07:57N 59°41' E 028°23'0 0.0
2019-Oct-16 07:27N 59°41' E 028°23'0 0.0
2019-Oct-16 07:00N 59°41' E 028°23'0 0.0
2019-Oct-16 06:27N 59°41' E 028°23'0 0.0
2019-Oct-16 06:00N 59°41' E 028°23'0 0.0
2019-Oct-16 05:30N 59°41' E 028°23'0 0.0
2019-Oct-16 05:00N 59°41' E 028°23'0 0.0
2019-Oct-16 04:30N 59°41' E 028°23'0 0.0
2019-Oct-16 04:00N 59°41' E 028°23'0 0.0
2019-Oct-16 03:29N 59°41' E 028°23'0 0.0
2019-Oct-16 03:00N 59°41' E 028°23'0 0.0
2019-Oct-16 02:30N 59°41' E 028°23'0 0.0
2019-Oct-16 02:00N 59°41' E 028°23'0 0.0
2019-Oct-16 01:30N 59°41' E 028°23'0 0.0
2019-Oct-16 01:00N 59°41' E 028°23'0 0.0
2019-Oct-16 00:30N 59°41' E 028°23'0 0.0
2019-Oct-16 00:00N 59°41' E 028°23'0 0.0
2019-Oct-15 23:21N 59°41' E 028°23'0 0.0
2019-Oct-15 22:51N 59°41' E 028°23'0 0.0
2019-Oct-15 22:24N 59°41' E 028°23'0 0.0
2019-Oct-15 21:50N 59°41' E 028°23'0 0.0
2019-Oct-15 21:24N 59°41' E 028°23'0 0.0
2019-Oct-15 20:53N 59°41' E 028°23'0 0.0
2019-Oct-15 20:30N 59°41' E 028°23'1 1.6
2019-Oct-15 20:00N 59°41' E 028°24'3 5.7
2019-Oct-15 19:30N 59°44' E 028°23'4 8.7
2019-Oct-15 19:00N 59°48' E 028°25'2 3.9
2019-Oct-15 18:30N 59°50' E 028°24'0 0.0
2019-Oct-15 17:45N 59°50' E 028°24'0 0.1
2019-Oct-15 17:30N 59°50' E 028°24'0 0.0
2019-Oct-15 17:00N 59°50' E 028°24'0 0.0
2019-Oct-15 16:30N 59°50' E 028°24'0 0.0
2019-Oct-15 16:00N 59°50' E 028°24'0 0.0
2019-Oct-15 15:30N 59°50' E 028°24'0 0.0
2019-Oct-15 15:00N 59°50' E 028°24'0 0.0
2019-Oct-15 14:30N 59°50' E 028°24'0 0.0
2019-Oct-15 14:00N 59°50' E 028°24'0 0.1
2019-Oct-15 13:30N 59°50' E 028°24'0 0.1
2019-Oct-15 13:00N 59°50' E 028°24'0 0.1
2019-Oct-15 12:30N 59°50' E 028°24'0 0.0
2019-Oct-15 12:00N 59°50' E 028°24'0 0.0
2019-Oct-15 11:24N 59°50' E 028°24'0 0.0
2019-Oct-15 11:00N 59°50' E 028°24'0 0.1
2019-Oct-15 10:21N 59°50' E 028°24'0 0.0
2019-Oct-15 10:00N 59°50' E 028°24'0 0.1
2019-Oct-15 09:27N 59°50' E 028°24'0 0.0
2019-Oct-15 08:54N 59°50' E 028°24'0 0.0
2019-Oct-15 08:27N 59°50' E 028°24'0 0.0
2019-Oct-15 07:57N 59°50' E 028°24'0 0.0
2019-Oct-15 07:27N 59°50' E 028°24'0 0.0
2019-Oct-15 07:00N 59°50' E 028°24'0 0.0
2019-Oct-15 06:24N 59°50' E 028°24'0 0.0
2019-Oct-15 06:00N 59°50' E 028°24'0 0.0
2019-Oct-15 05:27N 59°50' E 028°24'0 0.0
2019-Oct-15 05:00N 59°50' E 028°24'0 0.0
2019-Oct-15 04:30N 59°50' E 028°24'0 0.0
2019-Oct-15 04:00N 59°50' E 028°24'0 0.0
2019-Oct-15 03:30N 59°50' E 028°24'0 0.0
2019-Oct-15 03:00N 59°50' E 028°24'0 0.0
2019-Oct-15 02:30N 59°50' E 028°24'0 0.0
2019-Oct-15 02:00N 59°50' E 028°24'0 0.0
2019-Oct-15 01:30N 59°50' E 028°24'0 0.0
2019-Oct-15 01:00N 59°50' E 028°24'0 0.0
2019-Oct-15 00:30N 59°50' E 028°24'0 0.0
2019-Oct-15 00:00N 59°50' E 028°24'0 0.0
2019-Oct-14 23:30N 59°50' E 028°24'0 0.0
2019-Oct-14 23:00N 59°50' E 028°24'0 0.0
2019-Oct-14 22:30N 59°50' E 028°24'0 0.1
2019-Oct-14 22:00N 59°50' E 028°24'0 0.0
2019-Oct-14 21:30N 59°50' E 028°24'0 0.1
2019-Oct-14 21:00N 59°50' E 028°24'0 0.0
2019-Oct-14 20:30N 59°50' E 028°24'0 0.1
2019-Oct-14 20:00N 59°50' E 028°24'0 0.0
2019-Oct-14 19:30N 59°50' E 028°24'0 0.0
2019-Oct-14 19:00N 59°50' E 028°24'0 0.0
2019-Oct-14 18:24N 59°50' E 028°24'0 0.1
2019-Oct-14 17:54N 59°50' E 028°24'0 0.0
2019-Oct-14 17:30N 59°50' E 028°24'0 0.0
2019-Oct-14 16:54N 59°50' E 028°24'0 0.0
2019-Oct-14 16:24N 59°50' E 028°24'0 0.1
2019-Oct-14 15:57N 59°50' E 028°24'0 0.0
2019-Oct-14 15:27N 59°50' E 028°24'0 0.0
2019-Oct-14 14:57N 59°50' E 028°24'0 0.1
2019-Oct-14 14:30N 59°50' E 028°24'0 0.1
2019-Oct-14 13:57N 59°50' E 028°24'0 0.0
2019-Oct-14 13:27N 59°50' E 028°24'0 0.0
2019-Oct-14 13:00N 59°50' E 028°24'0 0.1
2019-Oct-14 12:30N 59°50' E 028°24'0 0.0
2019-Oct-14 12:00N 59°50' E 028°24'0 0.1
2019-Oct-14 11:30N 59°50' E 028°24'0 0.0
2019-Oct-14 11:00N 59°50' E 028°24'0 0.0
2019-Oct-14 10:30N 59°50' E 028°24'0 0.0
2019-Oct-14 10:00N 59°50' E 028°24'0 0.1
2019-Oct-14 09:30N 59°50' E 028°24'0 0.0
2019-Oct-14 09:00N 59°50' E 028°24'0 0.0
2019-Oct-14 08:30N 59°50' E 028°24'0 0.0
2019-Oct-14 08:00N 59°50' E 028°24'0 0.1
2019-Oct-14 07:30N 59°50' E 028°24'0 0.0
2019-Oct-14 07:00N 59°50' E 028°24'0 0.0
2019-Oct-14 06:30N 59°50' E 028°24'0 0.0
2019-Oct-14 06:00N 59°50' E 028°24'0 0.0
2019-Oct-14 05:30N 59°50' E 028°24'0 0.0
2019-Oct-14 04:51N 59°50' E 028°24'0 0.0
2019-Oct-14 04:21N 59°50' E 028°24'0 0.0
2019-Oct-14 04:00N 59°50' E 028°24'0 0.1
2019-Oct-14 03:24N 59°50' E 028°24'0 0.0
2019-Oct-14 02:57N 59°50' E 028°24'0 0.0
2019-Oct-14 02:24N 59°50' E 028°24'0 0.2
2019-Oct-14 02:00N 59°50' E 028°24'0 0.0
2019-Oct-14 01:30N 59°50' E 028°24'0 0.1
2019-Oct-14 00:57N 59°50' E 028°24'0 0.0
2019-Oct-14 00:30N 59°50' E 028°24'0 0.1
2019-Oct-14 00:00N 59°50' E 028°24'0 0.1
2019-Oct-13 23:30N 59°50' E 028°24'0 0.0
2019-Oct-13 22:57N 59°50' E 028°24'0 0.0
2019-Oct-13 22:27N 59°50' E 028°24'0 0.0
2019-Oct-13 22:00N 59°50' E 028°24'0 0.0
2019-Oct-13 21:30N 59°50' E 028°24'0 0.1
2019-Oct-13 21:00N 59°50' E 028°24'0 0.0
2019-Oct-13 20:30N 59°50' E 028°24'0 0.2
2019-Oct-13 19:57N 59°50' E 028°24'1 2.2
2019-Oct-13 19:30N 59°51' E 028°25'510.6
2019-Oct-13 19:00N 59°55' E 028°32'3 6.6
2019-Oct-13 18:30N 59°58' E 028°35'4 7.0
2019-Oct-13 18:00N 60°01' E 028°36'3 6.2
2019-Oct-13 17:30N 60°02' E 028°30'4 8.3
2019-Oct-13 17:00N 60°04' E 028°23'4 8.9
2019-Oct-13 16:30N 60°07' E 028°16'4 8.9
2019-Oct-13 16:00N 60°08' E 028°07'4 8.9
2019-Oct-13 15:31N 60°09' E 027°59'4 8.9
2019-Oct-13 15:00N 60°10' E 027°50'4 8.3
2019-Oct-13 14:30N 60°09' E 027°42'4 8.8
2019-Oct-13 14:00N 60°07' E 027°34'4 8.9
2019-Oct-13 13:30N 60°05' E 027°27'4 8.9
2019-Oct-13 13:00N 60°02' E 027°19'5 9.3
2019-Oct-13 12:31N 59°60' E 027°11'4 9.0
2019-Oct-13 12:01N 59°58' E 027°03'5 9.9
2019-Oct-13 11:30N 59°59' E 026°53'510.0
2019-Oct-13 11:01N 59°59' E 026°43'5 9.8
2019-Oct-13 10:30N 59°59' E 026°34'510.1
2019-Oct-13 10:00N 59°57' E 026°24'5 9.8
2019-Oct-13 09:30N 59°56' E 026°14'5 9.7
2019-Oct-13 08:59N 59°55' E 026°05'5 9.6
2019-Oct-13 08:27N 59°53' E 025°55'4 9.4
2019-Oct-13 08:00N 59°52' E 025°47'7 9.3
2019-Oct-13 07:15N 59°50' E 025°33'2 9.2
2019-Oct-13 07:00N 59°50' E 025°29'4 9.2
2019-Oct-13 06:30N 59°49' E 025°20'5 9.4
2019-Oct-13 06:00N 59°48' E 025°11'5 9.7
2019-Oct-13 05:30N 59°47' E 025°02'5 9.8
2019-Oct-13 05:00N 59°45' E 024°53'510.0
2019-Oct-13 04:30N 59°40' E 024°49'5 9.2
2019-Oct-13 04:00N 59°35' E 024°50'0 0.9
2019-Oct-13 03:28N 59°35' E 024°50'0 0.1
2019-Oct-13 02:58N 59°35' E 024°50'0 0.2
2019-Oct-13 02:28N 59°35' E 024°50'0 0.0
2019-Oct-13 01:58N 59°35' E 024°50'0 0.1
2019-Oct-13 01:28N 59°35' E 024°50'0 0.0
2019-Oct-13 00:58N 59°35' E 024°50'0 0.1
2019-Oct-13 00:28N 59°35' E 024°50'0 0.0
2019-Oct-12 23:58N 59°35' E 024°50'0 0.0
2019-Oct-12 23:28N 59°35' E 024°50'0 0.0
2019-Oct-12 22:55N 59°35' E 024°50'0 0.0
2019-Oct-12 22:28N 59°35' E 024°50'0 0.1
2019-Oct-12 21:58N 59°35' E 024°50'0 0.2
2019-Oct-12 21:28N 59°35' E 024°50'0 0.2
2019-Oct-12 20:58N 59°35' E 024°50'0 0.0
2019-Oct-12 20:28N 59°35' E 024°50'0 0.0
2019-Oct-12 19:58N 59°35' E 024°50'0 0.1
2019-Oct-12 19:28N 59°35' E 024°50'1 1.3
2019-Oct-12 19:00N 59°35' E 024°51'4 8.6
2019-Oct-12 18:30N 59°37' E 024°43'510.7
2019-Oct-12 18:00N 59°38' E 024°32'611.6
2019-Oct-12 17:30N 59°40' E 024°22'611.3
2019-Oct-12 16:57N 59°40' E 024°09'511.0
2019-Oct-12 16:30N 59°39' E 024°00'611.2
2019-Oct-12 15:59N 59°37' E 023°49'611.5
2019-Oct-12 15:30N 59°35' E 023°39'611.6
2019-Oct-12 15:00N 59°33' E 023°28'711.4
2019-Oct-12 14:22N 59°31' E 023°14'411.6
2019-Oct-12 14:00N 59°29' E 023°07'611.2
2019-Oct-12 13:30N 59°27' E 022°56'1011.1
2019-Oct-12 12:35N 59°24' E 022°38'26611.1
2019-Oct-11 12:38N 56°09' E 016°59'211.2
2019-Oct-11 12:26N 56°08' E 016°55'611.2
2019-Oct-11 11:55N 56°04' E 016°47'511.1
2019-Oct-11 11:31N 56°01' E 016°41'611.1
2019-Oct-11 11:00N 55°59' E 016°32'510.8
2019-Oct-11 10:30N 55°56' E 016°24'510.8
2019-Oct-11 10:01N 55°53' E 016°16'510.8
2019-Oct-11 09:30N 55°50' E 016°07'611.1
2019-Oct-11 09:01N 55°47' E 015°59'611.2
2019-Oct-11 08:30N 55°45' E 015°50'611.3
2019-Oct-11 08:01N 55°42' E 015°42'611.4
2019-Oct-11 07:31N 55°39' E 015°33'611.7
2019-Oct-11 07:00N 55°36' E 015°24'611.7
2019-Oct-11 06:30N 55°33' E 015°15'611.2
2019-Oct-11 06:01N 55°31' E 015°06'611.3
2019-Oct-11 05:30N 55°29' E 014°57'611.3
2019-Oct-11 05:00N 55°26' E 014°48'54 9.8
2019-Oct-10 23:27N 55°13' E 013°15'511.1
2019-Oct-10 23:00N 55°14' E 013°06'611.3
2019-Oct-10 22:26N 55°15' E 012°55'511.1
2019-Oct-10 22:00N 55°16' E 012°47'510.6
2019-Oct-10 21:30N 55°18' E 012°39'510.2
2019-Oct-10 21:01N 55°23' E 012°39'510.4
2019-Oct-10 20:31N 55°28' E 012°42'4 8.3
2019-Oct-10 20:01N 55°32' E 012°46'5 9.7
2019-Oct-10 19:30N 55°36' E 012°51'510.5
2019-Oct-10 19:01N 55°40' E 012°57'714.5
2019-Oct-10 18:31N 55°46' E 012°50'714.4
2019-Oct-10 18:00N 55°52' E 012°44'714.0
2019-Oct-10 17:31N 55°59' E 012°41'714.5
2019-Oct-10 17:00N 56°05' E 012°34'612.5
2019-Oct-10 16:30N 56°09' E 012°25'510.7
2019-Oct-10 16:00N 56°12' E 012°17'5412.0
2019-Oct-10 11:28N 57°03' E 011°41'  
Track history (hours):
 
Tides and Currents Weather Stations Pressure Air Temp Water Temp Dewpoint Dewpoint Depression Visibility Wind Speed Wind Dir Waves Ship Positions

Azamara Quest

Last reported at 2019-Oct-20 10:50 UTC. Time now 2019-Oct-20 11:08 UTC.
Position N 54°45' E 012°39'.

Length 184 m; draft 10.6 m.

Type: Tanker. MMSI: 538005401.

Date/timePositionNaut miles runAvg speedWind from/ knotsBaromVisibWave heightAir tempDewpointWater temp
2019-Oct-20 10:50N 54°45' E 012°39'3411.9
2019-Oct-20 07:59N 54°58' E 013°34'1712.2
2019-Oct-20 06:37N 55°03' E 014°01'1211.8
2019-Oct-20 05:35N 55°13' E 014°16'512.5
2019-Oct-20 05:10N 55°17' E 014°22'1112.4
2019-Oct-20 04:18N 55°25' E 014°33'511.9
2019-Oct-20 03:52N 55°28' E 014°40'411.9
2019-Oct-20 03:30N 55°30' E 014°47'612.1
2019-Oct-20 03:00N 55°33' E 014°56'612.1
2019-Oct-20 02:30N 55°36' E 015°06'612.2
2019-Oct-20 02:01N 55°39' E 015°15'612.1
2019-Oct-20 01:31N 55°42' E 015°24'612.1
2019-Oct-20 01:01N 55°45' E 015°34'612.2
2019-Oct-20 00:31N 55°48' E 015°43'612.1
2019-Oct-20 00:00N 55°51' E 015°53'612.2
2019-Oct-19 23:31N 55°54' E 016°02'612.3
2019-Oct-19 23:01N 55°57' E 016°12'612.3
2019-Oct-19 22:31N 55°60' E 016°21'612.3
2019-Oct-19 22:00N 56°03' E 016°31'612.1
2019-Oct-19 21:31N 56°06' E 016°40'612.0
2019-Oct-19 21:00N 56°10' E 016°49'611.9
2019-Oct-19 20:31N 56°13' E 016°57'611.9
2019-Oct-19 20:01N 56°17' E 017°06'612.0
2019-Oct-19 19:31N 56°20' E 017°15'612.0
2019-Oct-19 19:01N 56°24' E 017°23'1812.2
2019-Oct-19 17:34N 56°35' E 017°49'23212.0
2019-Oct-18 22:17N 59°31' E 022°32'312.1
2019-Oct-18 22:01N 59°32' E 022°38'612.1
2019-Oct-18 21:30N 59°34' E 022°50'612.3
2019-Oct-18 21:00N 59°36' E 023°02'612.2
2019-Oct-18 20:30N 59°37' E 023°13'612.0
2019-Oct-18 20:00N 59°39' E 023°25'611.8
2019-Oct-18 19:30N 59°41' E 023°36'611.9
2019-Oct-18 19:01N 59°42' E 023°47'611.8
2019-Oct-18 18:30N 59°44' E 023°59'1011.9
2019-Oct-18 17:39N 59°46' E 024°18'212.2
2019-Oct-18 17:30N 59°47' E 024°22'612.1
2019-Oct-18 17:00N 59°48' E 024°33'612.2
2019-Oct-18 16:30N 59°50' E 024°45'612.2
2019-Oct-18 16:00N 59°51' E 024°57'612.0
2019-Oct-18 15:30N 59°52' E 025°09'611.9
2019-Oct-18 15:00N 59°53' E 025°20'612.1
2019-Oct-18 14:30N 59°54' E 025°32'812.3
2019-Oct-18 13:51N 59°55' E 025°48'412.2
2019-Oct-18 13:30N 59°56' E 025°57'611.8
2019-Oct-18 12:58N 59°58' E 026°08'611.9
2019-Oct-18 12:30N 59°60' E 026°19'612.0
2019-Oct-18 12:00N 60°01' E 026°31'611.6
2019-Oct-18 11:30N 60°01' E 026°42'612.0
2019-Oct-18 11:00N 60°00' E 026°54'611.8
2019-Oct-18 10:31N 60°00' E 027°06'612.0
2019-Oct-18 10:00N 60°04' E 027°16'612.1
2019-Oct-18 09:30N 60°07' E 027°26'612.3
2019-Oct-18 09:00N 60°10' E 027°37'611.5
2019-Oct-18 08:30N 60°12' E 027°48'612.0
2019-Oct-18 08:00N 60°10' E 027°60'612.0
2019-Oct-18 07:30N 60°09' E 028°11'611.6
2019-Oct-18 07:00N 60°06' E 028°21'611.7
2019-Oct-18 06:30N 60°03' E 028°32'4 8.1
2019-Oct-18 06:00N 59°60' E 028°36'5 9.6
2019-Oct-18 05:31N 59°55' E 028°33'510.1
2019-Oct-18 05:00N 59°51' E 028°27'612.1
2019-Oct-18 04:31N 59°45' E 028°25'3 6.6
2019-Oct-18 04:00N 59°42' E 028°25'2 3.7
2019-Oct-18 03:30N 59°41' E 028°23'0 0.0
2019-Oct-18 03:00N 59°41' E 028°23'0 0.0
2019-Oct-18 02:30N 59°41' E 028°23'0 0.0
2019-Oct-18 02:00N 59°41' E 028°23'0 0.0
2019-Oct-18 01:30N 59°41' E 028°23'0 0.0
2019-Oct-18 01:00N 59°41' E 028°23'0 0.0
2019-Oct-18 00:30N 59°41' E 028°23'0 0.0
2019-Oct-18 00:00N 59°41' E 028°23'0 0.0
2019-Oct-17 23:30N 59°41' E 028°23'0 0.0
2019-Oct-17 23:00N 59°41' E 028°23'0 0.0
2019-Oct-17 22:30N 59°41' E 028°23'0 0.0
2019-Oct-17 21:51N 59°41' E 028°23'0 0.0
2019-Oct-17 21:21N 59°41' E 028°23'0 0.0
2019-Oct-17 20:54N 59°41' E 028°23'0 0.0
2019-Oct-17 20:21N 59°41' E 028°23'0 0.0
2019-Oct-17 19:51N 59°41' E 028°23'0 0.0
2019-Oct-17 19:21N 59°41' E 028°23'0 0.0
2019-Oct-17 18:51N 59°41' E 028°23'0 0.0
2019-Oct-17 18:24N 59°41' E 028°23'0 0.0
2019-Oct-17 17:54N 59°41' E 028°23'0 0.0
2019-Oct-17 17:24N 59°41' E 028°23'0 0.0
2019-Oct-17 16:54N 59°41' E 028°23'0 0.0
2019-Oct-17 16:24N 59°41' E 028°23'0 0.0
2019-Oct-17 15:57N 59°41' E 028°23'0 0.0
2019-Oct-17 15:27N 59°41' E 028°23'0 0.0
2019-Oct-17 14:57N 59°41' E 028°23'0 0.0
2019-Oct-17 14:27N 59°41' E 028°23'0 0.0
2019-Oct-17 13:57N 59°41' E 028°23'0 0.0
2019-Oct-17 13:30N 59°41' E 028°23'0 0.0
2019-Oct-17 13:00N 59°41' E 028°23'0 0.0
2019-Oct-17 12:24N 59°41' E 028°23'0 0.0
2019-Oct-17 12:00N 59°41' E 028°23'0 0.0
2019-Oct-17 11:30N 59°41' E 028°23'0 0.0
2019-Oct-17 11:00N 59°41' E 028°23'0 0.0
2019-Oct-17 10:30N 59°41' E 028°23'0 0.0
2019-Oct-17 10:00N 59°41' E 028°23'0 0.0
2019-Oct-17 09:30N 59°41' E 028°23'0 0.0
2019-Oct-17 08:45N 59°41' E 028°23'0 0.0
2019-Oct-17 08:30N 59°41' E 028°23'0 0.0
2019-Oct-17 08:00N 59°41' E 028°23'0 0.0
2019-Oct-17 07:30N 59°41' E 028°23'0 0.0
2019-Oct-17 07:00N 59°41' E 028°23'0 0.0
2019-Oct-17 06:30N 59°41' E 028°23'0 0.0
2019-Oct-17 05:51N 59°41' E 028°23'0 0.0
2019-Oct-17 05:30N 59°41' E 028°23'0 0.0
2019-Oct-17 04:54N 59°41' E 028°23'0 0.0
2019-Oct-17 04:21N 59°41' E 028°23'0 0.0
2019-Oct-17 03:51N 59°41' E 028°23'0 0.0
2019-Oct-17 03:24N 59°41' E 028°23'0 0.0
2019-Oct-17 02:54N 59°41' E 028°23'0 0.0
2019-Oct-17 02:24N 59°41' E 028°23'0 0.0
2019-Oct-17 01:54N 59°41' E 028°23'0 0.0
2019-Oct-17 01:27N 59°41' E 028°23'0 0.0
2019-Oct-17 00:57N 59°41' E 028°23'0 0.0
2019-Oct-17 00:24N 59°41' E 028°23'0 0.0
2019-Oct-16 23:57N 59°41' E 028°23'0 0.0
2019-Oct-16 23:27N 59°41' E 028°23'0 0.0
2019-Oct-16 22:57N 59°41' E 028°23'0 0.0
2019-Oct-16 22:30N 59°41' E 028°23'0 0.0
2019-Oct-16 22:00N 59°41' E 028°23'0 0.0
2019-Oct-16 21:30N 59°41' E 028°23'0 0.0
2019-Oct-16 21:00N 59°41' E 028°23'0 0.0
2019-Oct-16 20:30N 59°41' E 028°23'0 0.0
2019-Oct-16 20:00N 59°41' E 028°23'0 0.0
2019-Oct-16 19:30N 59°41' E 028°23'0 0.0
2019-Oct-16 18:57N 59°41' E 028°23'0 0.0
2019-Oct-16 18:30N 59°41' E 028°23'0 0.0
2019-Oct-16 18:00N 59°41' E 028°23'0 0.0
2019-Oct-16 17:30N 59°41' E 028°23'0 0.0
2019-Oct-16 17:00N 59°41' E 028°23'0 0.0
2019-Oct-16 16:30N 59°41' E 028°23'0 0.0
2019-Oct-16 16:00N 59°41' E 028°23'0 0.0
2019-Oct-16 15:21N 59°41' E 028°23'0 0.0
2019-Oct-16 14:51N 59°41' E 028°23'0 0.0
2019-Oct-16 14:30N 59°41' E 028°23'0 0.0
2019-Oct-16 13:51N 59°41' E 028°23'0 0.0
2019-Oct-16 13:21N 59°41' E 028°23'0 0.0
2019-Oct-16 12:54N 59°41' E 028°23'0 0.0
2019-Oct-16 12:24N 59°41' E 028°23'0 0.0
2019-Oct-16 11:54N 59°41' E 028°23'0 0.0
2019-Oct-16 11:24N 59°41' E 028°23'0 0.0
2019-Oct-16 10:54N 59°41' E 028°23'0 0.0
2019-Oct-16 10:27N 59°41' E 028°23'0 0.0
2019-Oct-16 09:57N 59°41' E 028°23'0 0.0
2019-Oct-16 09:27N 59°41' E 028°23'0 0.0
2019-Oct-16 08:57N 59°41' E 028°23'0 0.0
2019-Oct-16 08:27N 59°41' E 028°23'0 0.0
2019-Oct-16 07:57N 59°41' E 028°23'0 0.0
2019-Oct-16 07:27N 59°41' E 028°23'0 0.0
2019-Oct-16 07:00N 59°41' E 028°23'0 0.0
2019-Oct-16 06:27N 59°41' E 028°23'0 0.0
2019-Oct-16 06:00N 59°41' E 028°23'0 0.0
2019-Oct-16 05:30N 59°41' E 028°23'0 0.0
2019-Oct-16 05:00N 59°41' E 028°23'0 0.0
2019-Oct-16 04:30N 59°41' E 028°23'0 0.0
2019-Oct-16 04:00N 59°41' E 028°23'0 0.0
2019-Oct-16 03:29N 59°41' E 028°23'0 0.0
2019-Oct-16 03:00N 59°41' E 028°23'0 0.0
2019-Oct-16 02:30N 59°41' E 028°23'0 0.0
2019-Oct-16 02:00N 59°41' E 028°23'0 0.0
2019-Oct-16 01:30N 59°41' E 028°23'0 0.0
2019-Oct-16 01:00N 59°41' E 028°23'0 0.0
2019-Oct-16 00:30N 59°41' E 028°23'0 0.0
2019-Oct-16 00:00N 59°41' E 028°23'0 0.0
2019-Oct-15 23:21N 59°41' E 028°23'0 0.0
2019-Oct-15 22:51N 59°41' E 028°23'0 0.0
2019-Oct-15 22:24N 59°41' E 028°23'0 0.0
2019-Oct-15 21:50N 59°41' E 028°23'0 0.0
2019-Oct-15 21:24N 59°41' E 028°23'0 0.0
2019-Oct-15 20:53N 59°41' E 028°23'0 0.0
2019-Oct-15 20:30N 59°41' E 028°23'1 1.6
2019-Oct-15 20:00N 59°41' E 028°24'3 5.7
2019-Oct-15 19:30N 59°44' E 028°23'4 8.7
2019-Oct-15 19:00N 59°48' E 028°25'2 3.9
2019-Oct-15 18:30N 59°50' E 028°24'0 0.0
2019-Oct-15 17:45N 59°50' E 028°24'0 0.1
2019-Oct-15 17:30N 59°50' E 028°24'0 0.0
2019-Oct-15 17:00N 59°50' E 028°24'0 0.0
2019-Oct-15 16:30N 59°50' E 028°24'0 0.0
2019-Oct-15 16:00N 59°50' E 028°24'0 0.0
2019-Oct-15 15:30N 59°50' E 028°24'0 0.0
2019-Oct-15 15:00N 59°50' E 028°24'0 0.0
2019-Oct-15 14:30N 59°50' E 028°24'0 0.0
2019-Oct-15 14:00N 59°50' E 028°24'0 0.1
2019-Oct-15 13:30N 59°50' E 028°24'0 0.1
2019-Oct-15 13:00N 59°50' E 028°24'0 0.1
2019-Oct-15 12:30N 59°50' E 028°24'0 0.0
2019-Oct-15 12:00N 59°50' E 028°24'0 0.0
2019-Oct-15 11:24N 59°50' E 028°24'0 0.0
2019-Oct-15 11:00N 59°50' E 028°24'0 0.1
2019-Oct-15 10:21N 59°50' E 028°24'0 0.0
2019-Oct-15 10:00N 59°50' E 028°24'0 0.1
2019-Oct-15 09:27N 59°50' E 028°24'0 0.0
2019-Oct-15 08:54N 59°50' E 028°24'0 0.0
2019-Oct-15 08:27N 59°50' E 028°24'0 0.0
2019-Oct-15 07:57N 59°50' E 028°24'0 0.0
2019-Oct-15 07:27N 59°50' E 028°24'0 0.0
2019-Oct-15 07:00N 59°50' E 028°24'0 0.0
2019-Oct-15 06:24N 59°50' E 028°24'0 0.0
2019-Oct-15 06:00N 59°50' E 028°24'0 0.0
2019-Oct-15 05:27N 59°50' E 028°24'0 0.0
2019-Oct-15 05:00N 59°50' E 028°24'0 0.0
2019-Oct-15 04:30N 59°50' E 028°24'0 0.0
2019-Oct-15 04:00N 59°50' E 028°24'0 0.0
2019-Oct-15 03:30N 59°50' E 028°24'0 0.0
2019-Oct-15 03:00N 59°50' E 028°24'0 0.0
2019-Oct-15 02:30N 59°50' E 028°24'0 0.0
2019-Oct-15 02:00N 59°50' E 028°24'0 0.0
2019-Oct-15 01:30N 59°50' E 028°24'0 0.0
2019-Oct-15 01:00N 59°50' E 028°24'0 0.0
2019-Oct-15 00:30N 59°50' E 028°24'0 0.0
2019-Oct-15 00:00N 59°50' E 028°24'0 0.0
2019-Oct-14 23:30N 59°50' E 028°24'0 0.0
2019-Oct-14 23:00N 59°50' E 028°24'0 0.0
2019-Oct-14 22:30N 59°50' E 028°24'0 0.1
2019-Oct-14 22:00N 59°50' E 028°24'0 0.0
2019-Oct-14 21:30N 59°50' E 028°24'0 0.1
2019-Oct-14 21:00N 59°50' E 028°24'0 0.0
2019-Oct-14 20:30N 59°50' E 028°24'0 0.1
2019-Oct-14 20:00N 59°50' E 028°24'0 0.0
2019-Oct-14 19:30N 59°50' E 028°24'0 0.0
2019-Oct-14 19:00N 59°50' E 028°24'0 0.0
2019-Oct-14 18:24N 59°50' E 028°24'0 0.1
2019-Oct-14 17:54N 59°50' E 028°24'0 0.0
2019-Oct-14 17:30N 59°50' E 028°24'0 0.0
2019-Oct-14 16:54N 59°50' E 028°24'0 0.0
2019-Oct-14 16:24N 59°50' E 028°24'0 0.1
2019-Oct-14 15:57N 59°50' E 028°24'0 0.0
2019-Oct-14 15:27N 59°50' E 028°24'0 0.0
2019-Oct-14 14:57N 59°50' E 028°24'0 0.1
2019-Oct-14 14:30N 59°50' E 028°24'0 0.1
2019-Oct-14 13:57N 59°50' E 028°24'0 0.0
2019-Oct-14 13:27N 59°50' E 028°24'0 0.0
2019-Oct-14 13:00N 59°50' E 028°24'0 0.1
2019-Oct-14 12:30N 59°50' E 028°24'0 0.0
2019-Oct-14 12:00N 59°50' E 028°24'0 0.1
2019-Oct-14 11:30N 59°50' E 028°24'0 0.0
2019-Oct-14 11:00N 59°50' E 028°24'0 0.0
2019-Oct-14 10:30N 59°50' E 028°24'0 0.0
2019-Oct-14 10:00N 59°50' E 028°24'0 0.1
2019-Oct-14 09:30N 59°50' E 028°24'0 0.0
2019-Oct-14 09:00N 59°50' E 028°24'0 0.0
2019-Oct-14 08:30N 59°50' E 028°24'0 0.0
2019-Oct-14 08:00N 59°50' E 028°24'0 0.1
2019-Oct-14 07:30N 59°50' E 028°24'0 0.0
2019-Oct-14 07:00N 59°50' E 028°24'0 0.0
2019-Oct-14 06:30N 59°50' E 028°24'0 0.0
2019-Oct-14 06:00N 59°50' E 028°24'0 0.0
2019-Oct-14 05:30N 59°50' E 028°24'0 0.0
2019-Oct-14 04:51N 59°50' E 028°24'0 0.0
2019-Oct-14 04:21N 59°50' E 028°24'0 0.0
2019-Oct-14 04:00N 59°50' E 028°24'0 0.1
2019-Oct-14 03:24N 59°50' E 028°24'0 0.0
2019-Oct-14 02:57N 59°50' E 028°24'0 0.0
2019-Oct-14 02:24N 59°50' E 028°24'0 0.2
2019-Oct-14 02:00N 59°50' E 028°24'0 0.0
2019-Oct-14 01:30N 59°50' E 028°24'0 0.1
2019-Oct-14 00:57N 59°50' E 028°24'0 0.0
2019-Oct-14 00:30N 59°50' E 028°24'0 0.1
2019-Oct-14 00:00N 59°50' E 028°24'0 0.1
2019-Oct-13 23:30N 59°50' E 028°24'0 0.0
2019-Oct-13 22:57N 59°50' E 028°24'0 0.0
2019-Oct-13 22:27N 59°50' E 028°24'0 0.0
2019-Oct-13 22:00N 59°50' E 028°24'0 0.0
2019-Oct-13 21:30N 59°50' E 028°24'0 0.1
2019-Oct-13 21:00N 59°50' E 028°24'0 0.0
2019-Oct-13 20:30N 59°50' E 028°24'0 0.2
2019-Oct-13 19:57N 59°50' E 028°24'1 2.2
2019-Oct-13 19:30N 59°51' E 028°25'510.6
2019-Oct-13 19:00N 59°55' E 028°32'3 6.6
2019-Oct-13 18:30N 59°58' E 028°35'4 7.0
2019-Oct-13 18:00N 60°01' E 028°36'3 6.2
2019-Oct-13 17:30N 60°02' E 028°30'4 8.3
2019-Oct-13 17:00N 60°04' E 028°23'4 8.9
2019-Oct-13 16:30N 60°07' E 028°16'4 8.9
2019-Oct-13 16:00N 60°08' E 028°07'4 8.9
2019-Oct-13 15:31N 60°09' E 027°59'4 8.9
2019-Oct-13 15:00N 60°10' E 027°50'4 8.3
2019-Oct-13 14:30N 60°09' E 027°42'4 8.8
2019-Oct-13 14:00N 60°07' E 027°34'4 8.9
2019-Oct-13 13:30N 60°05' E 027°27'4 8.9
2019-Oct-13 13:00N 60°02' E 027°19'5 9.3
2019-Oct-13 12:31N 59°60' E 027°11'4 9.0
2019-Oct-13 12:01N 59°58' E 027°03'5 9.9
2019-Oct-13 11:30N 59°59' E 026°53'510.0
2019-Oct-13 11:01N 59°59' E 026°43'5 9.8
2019-Oct-13 10:30N 59°59' E 026°34'510.1
2019-Oct-13 10:00N 59°57' E 026°24'5 9.8
2019-Oct-13 09:30N 59°56' E 026°14'5 9.7
2019-Oct-13 08:59N 59°55' E 026°05'5 9.6
2019-Oct-13 08:27N 59°53' E 025°55'4 9.4
2019-Oct-13 08:00N 59°52' E 025°47'7 9.3
2019-Oct-13 07:15N 59°50' E 025°33'2 9.2
2019-Oct-13 07:00N 59°50' E 025°29'4 9.2
2019-Oct-13 06:30N 59°49' E 025°20'5 9.4
2019-Oct-13 06:00N 59°48' E 025°11'5 9.7
2019-Oct-13 05:30N 59°47' E 025°02'5 9.8
2019-Oct-13 05:00N 59°45' E 024°53'510.0
2019-Oct-13 04:30N 59°40' E 024°49'5 9.2
2019-Oct-13 04:00N 59°35' E 024°50'0 0.9
2019-Oct-13 03:28N 59°35' E 024°50'0 0.1
2019-Oct-13 02:58N 59°35' E 024°50'0 0.2
2019-Oct-13 02:28N 59°35' E 024°50'0 0.0
2019-Oct-13 01:58N 59°35' E 024°50'0 0.1
2019-Oct-13 01:28N 59°35' E 024°50'0 0.0
2019-Oct-13 00:58N 59°35' E 024°50'0 0.1
2019-Oct-13 00:28N 59°35' E 024°50'0 0.0
2019-Oct-12 23:58N 59°35' E 024°50'0 0.0
2019-Oct-12 23:28N 59°35' E 024°50'0 0.0
2019-Oct-12 22:55N 59°35' E 024°50'0 0.0
2019-Oct-12 22:28N 59°35' E 024°50'0 0.1
2019-Oct-12 21:58N 59°35' E 024°50'0 0.2
2019-Oct-12 21:28N 59°35' E 024°50'0 0.2
2019-Oct-12 20:58N 59°35' E 024°50'0 0.0
2019-Oct-12 20:28N 59°35' E 024°50'0 0.0
2019-Oct-12 19:58N 59°35' E 024°50'0 0.1
2019-Oct-12 19:28N 59°35' E 024°50'1 1.3
2019-Oct-12 19:00N 59°35' E 024°51'4 8.6
2019-Oct-12 18:30N 59°37' E 024°43'510.7
2019-Oct-12 18:00N 59°38' E 024°32'611.6
2019-Oct-12 17:30N 59°40' E 024°22'611.3
2019-Oct-12 16:57N 59°40' E 024°09'511.0
2019-Oct-12 16:30N 59°39' E 024°00'611.2
2019-Oct-12 15:59N 59°37' E 023°49'611.5
2019-Oct-12 15:30N 59°35' E 023°39'611.6
2019-Oct-12 15:00N 59°33' E 023°28'711.4
2019-Oct-12 14:22N 59°31' E 023°14'411.6
2019-Oct-12 14:00N 59°29' E 023°07'611.2
2019-Oct-12 13:30N 59°27' E 022°56'1011.1
2019-Oct-12 12:35N 59°24' E 022°38'26611.1
2019-Oct-11 12:38N 56°09' E 016°59'211.2
2019-Oct-11 12:26N 56°08' E 016°55'611.2
2019-Oct-11 11:55N 56°04' E 016°47'511.1
2019-Oct-11 11:31N 56°01' E 016°41'611.1
2019-Oct-11 11:00N 55°59' E 016°32'510.8
2019-Oct-11 10:30N 55°56' E 016°24'510.8
2019-Oct-11 10:01N 55°53' E 016°16'510.8
2019-Oct-11 09:30N 55°50' E 016°07'611.1
2019-Oct-11 09:01N 55°47' E 015°59'611.2
2019-Oct-11 08:30N 55°45' E 015°50'611.3
2019-Oct-11 08:01N 55°42' E 015°42'611.4
2019-Oct-11 07:31N 55°39' E 015°33'611.7
2019-Oct-11 07:00N 55°36' E 015°24'611.7
2019-Oct-11 06:30N 55°33' E 015°15'611.2
2019-Oct-11 06:01N 55°31' E 015°06'611.3
2019-Oct-11 05:30N 55°29' E 014°57'611.3
2019-Oct-11 05:00N 55°26' E 014°48'54 9.8
2019-Oct-10 23:27N 55°13' E 013°15'511.1
2019-Oct-10 23:00N 55°14' E 013°06'611.3
2019-Oct-10 22:26N 55°15' E 012°55'511.1
2019-Oct-10 22:00N 55°16' E 012°47'510.6
2019-Oct-10 21:30N 55°18' E 012°39'510.2
2019-Oct-10 21:01N 55°23' E 012°39'510.4
2019-Oct-10 20:31N 55°28' E 012°42'4 8.3
2019-Oct-10 20:01N 55°32' E 012°46'5 9.7
2019-Oct-10 19:30N 55°36' E 012°51'510.5
2019-Oct-10 19:01N 55°40' E 012°57'714.5
2019-Oct-10 18:31N 55°46' E 012°50'714.4
2019-Oct-10 18:00N 55°52' E 012°44'714.0
2019-Oct-10 17:31N 55°59' E 012°41'714.5
2019-Oct-10 17:00N 56°05' E 012°34'612.5
2019-Oct-10 16:30N 56°09' E 012°25'510.7
2019-Oct-10 16:00N 56°12' E 012°17'5412.0
2019-Oct-10 11:28N 57°03' E 011°41'  

Dump ship's entire track history